createdAt,value
2022-12-15T00:02:08.034Z,40.55
2022-12-15T00:04:25.679Z,39.45
2022-12-15T00:06:43.170Z,46.67
2022-12-15T00:09:00.634Z,46.95
2022-12-15T00:11:19.019Z,40.03
2022-12-15T00:13:36.998Z,42.40
2022-12-15T00:15:57.604Z,40.75
2022-12-15T00:18:20.380Z,41.50
2022-12-15T00:20:38.181Z,38.63
2022-12-15T00:22:55.607Z,47.00
2022-12-15T00:25:13.774Z,44.97
2022-12-15T00:27:31.229Z,41.58
2022-12-15T00:29:48.690Z,42.67
2022-12-15T00:32:08.777Z,48.67
2022-12-15T00:34:26.684Z,39.55
2022-12-15T00:36:44.860Z,46.60
2022-12-15T00:38:58.103Z,40.25
2022-12-15T00:41:08.558Z,41.60
2022-12-15T00:43:13.707Z,44.70
2022-12-15T00:45:19.425Z,45.30
2022-12-15T00:47:25.720Z,51.92
2022-12-15T00:49:45.256Z,48.95
2022-12-15T00:52:02.703Z,45.00
2022-12-15T00:54:20.727Z,47.35
2022-12-15T00:56:38.605Z,41.83
2022-12-15T00:58:56.197Z,44.80
2022-12-15T01:01:21.204Z,46.22
2022-12-15T01:03:41.961Z,44.90
2022-12-15T01:05:59.869Z,44.17
2022-12-15T01:08:17.317Z,48.97
2022-12-15T01:10:35.274Z,43.88
2022-12-15T01:12:52.859Z,45.00
2022-12-15T01:15:10.679Z,45.50
2022-12-15T01:17:29.596Z,46.78
2022-12-15T01:19:49.776Z,42.80
2022-12-15T01:21:55.524Z,44.08
2022-12-15T01:24:00.583Z,45.28
2022-12-15T01:26:06.902Z,46.65
2022-12-15T01:28:12.041Z,46.35
2022-12-15T01:30:20.439Z,40.58
2022-12-15T01:32:26.076Z,38.42
2022-12-15T01:34:31.160Z,42.78
2022-12-15T01:36:39.060Z,42.42
2022-12-15T01:38:46.915Z,42.10
2022-12-15T01:40:57.555Z,43.30
2022-12-15T01:43:02.555Z,41.53
2022-12-15T01:45:48.279Z,44.42
2022-12-15T01:47:54.020Z,43.97
2022-12-15T01:49:59.203Z,38.00
2022-12-15T01:52:12.184Z,40.60
2022-12-15T01:54:21.702Z,42.72
2022-12-15T01:56:35.522Z,45.40
2022-12-15T01:58:46.094Z,44.67
2022-12-15T02:00:51.135Z,46.83
2022-12-15T02:02:56.530Z,42.22
2022-12-15T02:05:04.129Z,43.50
2022-12-15T02:07:16.268Z,47.35
2022-12-15T02:09:23.800Z,43.00
2022-12-15T02:12:03.973Z,42.90
2022-12-15T02:14:12.224Z,47.47
2022-12-15T02:16:27.355Z,45.28
2022-12-15T02:18:40.404Z,42.63
2022-12-15T02:20:55.171Z,45.38
2022-12-15T02:24:00.455Z,49.65
2022-12-15T02:26:33.866Z,45.55
2022-12-15T02:28:55.234Z,46.17
2022-12-15T02:31:20.387Z,49.28
2022-12-15T02:33:30.904Z,46.55
2022-12-15T02:35:55.323Z,47.58
2022-12-15T02:38:01.330Z,42.95
2022-12-15T02:40:10.009Z,47.78
2022-12-15T02:42:15.364Z,44.42
2022-12-15T02:44:25.318Z,46.70
2022-12-15T02:46:44.598Z,35.50
2022-12-15T02:49:01.865Z,44.28
2022-12-15T02:51:32.164Z,35.28
2022-12-15T02:54:26.005Z,45.53
2022-12-15T02:56:39.771Z,39.92
2022-12-15T02:58:52.639Z,35.17
2022-12-15T03:01:04.379Z,37.53
2022-12-15T03:03:12.670Z,34.97
2022-12-15T03:05:19.570Z,34.85
2022-12-15T03:07:27.921Z,35.17
2022-12-15T03:09:33.504Z,35.08
2022-12-15T03:11:39.795Z,44.03
2022-12-15T03:13:44.790Z,33.42
2022-12-15T03:15:50.086Z,34.83
2022-12-15T03:17:55.035Z,41.67
2022-12-15T03:20:02.667Z,38.53
2022-12-15T03:22:07.917Z,41.58
2022-12-15T03:24:13.209Z,40.45
2022-12-15T03:26:18.154Z,43.50
2022-12-15T03:28:23.139Z,44.70
2022-12-15T03:30:28.105Z,38.15
2022-12-15T03:32:33.173Z,36.08
2022-12-15T03:34:38.171Z,41.85
2022-12-15T03:36:45.938Z,42.67
2022-12-15T03:38:50.929Z,41.05
2022-12-15T03:40:55.889Z,51.22
2022-12-15T03:43:00.900Z,42.78
2022-12-15T03:45:06.477Z,41.92
2022-12-15T03:47:11.452Z,33.17
2022-12-15T03:49:16.564Z,39.17
2022-12-15T03:51:21.659Z,41.35
2022-12-15T03:53:29.668Z,43.03
2022-12-15T03:55:35.432Z,46.05
2022-12-15T03:57:40.568Z,43.67
2022-12-15T03:59:45.560Z,36.70
2022-12-15T04:01:51.647Z,42.50
2022-12-15T04:04:00.536Z,39.47
2022-12-15T04:06:06.238Z,43.45
2022-12-15T04:08:12.868Z,39.95
2022-12-15T04:10:21.547Z,41.30
2022-12-15T04:12:26.527Z,36.60
2022-12-15T04:14:31.861Z,38.80
2022-12-15T04:16:36.903Z,43.42
2022-12-15T04:18:41.863Z,39.47
2022-12-15T04:20:44.844Z,36.40
2022-12-15T04:25:09.640Z,39.20
2022-12-15T04:27:29.644Z,36.55
2022-12-15T04:29:47.851Z,36.50
2022-12-15T04:32:05.846Z,37.50
2022-12-15T04:34:30.187Z,41.42
2022-12-15T04:36:48.767Z,46.45
2022-12-15T04:39:06.295Z,40.92
2022-12-15T04:41:23.844Z,38.65
2022-12-15T04:43:44.039Z,36.95
2022-12-15T04:46:01.477Z,38.90
2022-12-15T04:48:19.848Z,37.53
2022-12-15T04:50:37.327Z,46.67
2022-12-15T04:52:54.807Z,39.05
2022-12-15T04:55:12.234Z,36.42
2022-12-15T04:57:30.267Z,37.30
2022-12-15T04:59:50.257Z,34.13
2022-12-15T05:02:07.862Z,36.25
2022-12-15T05:04:25.855Z,42.28
2022-12-15T05:06:43.715Z,45.20
2022-12-15T05:09:01.154Z,45.45
2022-12-15T05:11:18.677Z,33.08
2022-12-15T05:13:36.132Z,36.17
2022-12-15T05:15:56.226Z,36.92
2022-12-15T05:18:13.696Z,37.92
2022-12-15T05:20:31.454Z,40.33
2022-12-15T05:22:49.589Z,45.22
2022-12-15T05:25:07.020Z,37.33
2022-12-15T05:27:24.961Z,37.22
2022-12-15T05:29:42.410Z,38.78
2022-12-15T05:31:52.175Z,40.03
2022-12-15T05:34:04.751Z,38.72
2022-12-15T05:36:11.608Z,37.55
2022-12-15T05:38:16.969Z,38.95
2022-12-15T05:40:21.955Z,40.17
2022-12-15T05:42:27.322Z,31.58
2022-12-15T05:44:32.984Z,37.90
2022-12-15T05:46:38.111Z,38.85
2022-12-15T05:48:46.884Z,39.38
2022-12-15T05:50:51.938Z,35.65
2022-12-15T05:52:56.941Z,44.92
2022-12-15T05:55:01.965Z,34.72
2022-12-15T05:57:07.470Z,38.40
2022-12-15T05:59:13.475Z,43.72
2022-12-15T06:01:22.335Z,39.38
2022-12-15T06:03:27.333Z,44.55
2022-12-15T06:05:34.898Z,39.17
2022-12-15T06:07:40.101Z,38.47
2022-12-15T06:09:45.512Z,34.38
2022-12-15T06:11:50.506Z,37.80
2022-12-15T06:13:58.291Z,41.85
2022-12-15T06:16:06.059Z,41.40
2022-12-15T06:18:11.097Z,42.30
2022-12-15T06:20:16.083Z,37.35
2022-12-15T06:22:24.040Z,39.55
2022-12-15T06:24:29.433Z,45.35
2022-12-15T06:26:37.315Z,46.65
2022-12-15T06:28:43.179Z,54.13
2022-12-15T06:30:48.347Z,49.15
2022-12-15T06:32:54.854Z,48.42
2022-12-15T06:35:00.566Z,48.22
2022-12-15T06:37:06.380Z,54.50
2022-12-15T06:39:16.459Z,54.78
2022-12-15T06:41:24.012Z,46.85
2022-12-15T06:43:30.628Z,56.28
2022-12-15T06:45:35.992Z,59.60
2022-12-15T06:47:40.943Z,57.95
2022-12-15T06:49:46.185Z,55.75
2022-12-15T06:51:52.772Z,43.40
2022-12-15T06:53:57.802Z,44.92
2022-12-15T06:56:10.264Z,51.10
2022-12-15T06:58:16.265Z,42.88
2022-12-15T07:00:22.713Z,49.35
2022-12-15T07:02:30.048Z,54.45
2022-12-15T07:04:35.544Z,48.17
2022-12-15T07:06:42.410Z,49.83
2022-12-15T07:08:52.609Z,53.72
2022-12-15T07:10:57.740Z,47.85
2022-12-15T07:13:05.308Z,58.70
2022-12-15T07:15:11.705Z,41.15
2022-12-15T07:17:16.655Z,49.30
2022-12-15T07:19:22.042Z,52.90
2022-12-15T07:21:27.016Z,54.08
2022-12-15T07:23:52.765Z,59.05
2022-12-15T07:25:57.716Z,48.33
2022-12-15T07:28:05.359Z,50.25
2022-12-15T07:30:12.872Z,51.92
2022-12-15T07:32:18.748Z,54.35
2022-12-15T07:34:24.114Z,48.00
2022-12-15T07:36:30.198Z,52.95
2022-12-15T07:38:35.815Z,53.63
2022-12-15T07:40:40.854Z,62.72
2022-12-15T07:42:46.621Z,55.70
2022-12-15T07:44:54.151Z,56.08
2022-12-15T07:46:59.119Z,48.60
2022-12-15T07:49:04.716Z,50.55
2022-12-15T07:51:18.755Z,70.13
2022-12-15T07:53:24.633Z,64.53
2022-12-15T07:55:57.249Z,56.22
2022-12-15T07:57:55.595Z,53.05
2022-12-15T08:00:05.425Z,53.97
2022-12-15T08:02:17.347Z,68.28
2022-12-15T08:04:23.411Z,56.17
2022-12-15T08:06:28.364Z,57.97
2022-12-15T08:08:35.031Z,52.13
2022-12-15T08:10:42.565Z,65.90
2022-12-15T08:12:47.996Z,53.65
2022-12-15T08:14:52.994Z,51.97
2022-12-15T08:17:00.639Z,60.83
2022-12-15T08:19:07.048Z,55.65
2022-12-15T08:21:14.649Z,58.47
2022-12-15T08:23:20.107Z,54.42
2022-12-15T08:25:25.545Z,49.05
2022-12-15T08:27:30.852Z,52.42
2022-12-15T08:29:52.669Z,57.75
2022-12-15T08:32:00.757Z,54.72
2022-12-15T08:34:07.755Z,62.10
2022-12-15T08:36:16.081Z,63.67
2022-12-15T08:38:21.064Z,55.88
2022-12-15T08:40:26.122Z,51.28
2022-12-15T08:42:36.699Z,60.53
2022-12-15T08:44:41.675Z,84.40
2022-12-15T08:46:46.683Z,73.35
2022-12-15T08:48:55.451Z,70.13
2022-12-15T08:51:01.853Z,53.28
2022-12-15T08:53:41.481Z,46.28
2022-12-15T08:55:32.382Z,48.08
2022-12-15T08:57:37.720Z,46.00
2022-12-15T08:59:43.560Z,49.55
2022-12-15T09:01:48.869Z,46.40
2022-12-15T09:03:58.610Z,44.55
2022-12-15T09:06:05.854Z,43.53
2022-12-15T09:08:11.177Z,43.60
2022-12-15T09:10:16.695Z,50.13
2022-12-15T09:12:21.675Z,49.80
2022-12-15T09:14:29.437Z,56.58
2022-12-15T09:16:35.086Z,60.05
2022-12-15T09:18:40.103Z,54.83
2022-12-15T09:20:47.682Z,46.53
2022-12-15T09:22:53.066Z,41.13
2022-12-15T09:24:58.172Z,45.78
2022-12-15T09:27:03.624Z,44.90
2022-12-15T09:29:09.183Z,40.35
2022-12-15T09:31:19.208Z,46.20
2022-12-15T09:33:24.255Z,45.13
2022-12-15T09:35:30.349Z,50.55
2022-12-15T09:37:37.955Z,42.30
2022-12-15T09:39:43.510Z,44.78
2022-12-15T09:41:57.002Z,48.80
2022-12-15T09:44:06.490Z,42.97
2022-12-15T09:46:23.614Z,50.45
2022-12-15T09:48:36.863Z,41.75
2022-12-15T09:50:44.141Z,46.42
2022-12-15T09:52:56.862Z,45.42
2022-12-15T09:55:03.764Z,49.58
2022-12-15T09:57:22.958Z,52.17
2022-12-15T09:59:36.046Z,48.20
2022-12-15T10:01:50.490Z,51.00
2022-12-15T10:04:08.110Z,52.55
2022-12-15T10:06:20.193Z,54.20
2022-12-15T10:08:35.664Z,51.92
2022-12-15T10:10:49.142Z,57.15
2022-12-15T10:13:02.571Z,55.58
2022-12-15T10:15:20.286Z,62.13
2022-12-15T10:17:29.175Z,60.92
2022-12-15T10:19:43.007Z,59.88
2022-12-15T10:21:50.564Z,55.65
2022-12-15T10:24:02.550Z,58.22
2022-12-15T10:26:23.299Z,58.55
2022-12-15T10:28:51.555Z,58.45
2022-12-15T10:31:03.550Z,58.58
2022-12-15T10:33:21.693Z,35.92
2022-12-15T10:35:29.377Z,51.95
2022-12-15T10:37:34.768Z,56.00
2022-12-15T10:39:44.773Z,57.92
2022-12-15T10:42:11.177Z,54.80
2022-12-15T10:44:32.310Z,54.67
2022-12-15T10:46:37.442Z,58.35
2022-12-15T10:48:43.348Z,52.42
2022-12-15T10:50:50.088Z,51.15
2022-12-15T10:52:55.313Z,53.78
2022-12-15T10:55:00.619Z,51.80
2022-12-15T10:57:19.903Z,50.55
2022-12-15T10:59:32.320Z,50.83
2022-12-15T11:01:37.996Z,48.20
2022-12-15T11:03:43.322Z,45.28
2022-12-15T11:05:56.196Z,45.33
2022-12-15T11:08:19.278Z,43.20
2022-12-15T11:10:27.401Z,43.92
2022-12-15T11:12:46.827Z,37.95
2022-12-15T11:14:58.049Z,44.85
2022-12-15T11:17:03.138Z,43.28
2022-12-15T11:19:16.416Z,39.58
2022-12-15T11:21:26.963Z,43.60
2022-12-15T11:23:49.004Z,45.20
2022-12-15T11:28:37.162Z,46.13
2022-12-15T11:30:50.135Z,39.58
2022-12-15T11:33:01.039Z,39.67
2022-12-15T11:35:06.643Z,36.35
2022-12-15T11:37:49.920Z,38.58
2022-12-15T11:40:15.436Z,38.83
2022-12-15T11:42:31.438Z,37.60
2022-12-15T11:44:51.753Z,37.03
2022-12-15T11:47:12.607Z,44.28
2022-12-15T11:50:00.902Z,35.55
2022-12-15T11:52:17.117Z,39.58
2022-12-15T11:54:31.385Z,44.15
2022-12-15T11:56:41.332Z,39.10
2022-12-15T11:59:02.845Z,41.10
2022-12-15T12:01:21.440Z,40.78
2022-12-15T12:03:41.678Z,43.38
2022-12-15T12:06:13.058Z,41.78
2022-12-15T12:08:33.130Z,41.53
2022-12-15T12:10:48.065Z,44.55
2022-12-15T12:13:00.023Z,41.88
2022-12-15T12:15:25.742Z,34.08
2022-12-15T12:17:43.931Z,34.92
2022-12-15T12:20:00.844Z,37.88
2022-12-15T12:22:14.699Z,40.05
2022-12-15T12:24:29.820Z,35.72
2022-12-15T12:26:44.075Z,39.60
2022-12-15T12:28:58.089Z,41.75
2022-12-15T12:31:06.321Z,44.00
2022-12-15T12:33:24.275Z,42.28
2022-12-15T12:35:41.431Z,44.92
2022-12-15T12:37:55.849Z,47.13
2022-12-15T12:40:14.245Z,45.33
2022-12-15T12:42:25.863Z,40.95
2022-12-15T12:44:36.523Z,44.33
2022-12-15T12:46:48.986Z,43.63
2022-12-15T12:49:01.647Z,41.13
2022-12-15T12:51:25.931Z,51.90
2022-12-15T12:53:37.301Z,38.90
2022-12-15T12:55:45.647Z,41.38
2022-12-15T12:57:51.011Z,39.60
2022-12-15T13:00:01.371Z,38.80
2022-12-15T13:02:57.720Z,43.58
2022-12-15T13:05:06.533Z,42.25
2022-12-15T13:07:34.737Z,40.55
2022-12-15T13:09:43.825Z,38.08
2022-12-15T13:12:20.767Z,38.47
2022-12-15T13:14:44.864Z,38.28
2022-12-15T13:17:25.484Z,35.42
2022-12-15T13:20:23.212Z,36.70
2022-12-15T13:22:35.619Z,36.63
2022-12-15T13:27:19.350Z,31.88
2022-12-15T13:29:26.233Z,35.78
2022-12-15T13:31:42.385Z,32.45
2022-12-15T13:33:54.222Z,32.92
2022-12-15T13:36:01.225Z,32.17
2022-12-15T13:38:19.112Z,33.53
2022-12-15T13:40:33.823Z,37.05
2022-12-15T13:42:53.028Z,32.42
2022-12-15T13:45:39.693Z,34.53
2022-12-15T13:47:57.625Z,33.80
2022-12-15T13:50:09.523Z,34.05
2022-12-15T13:52:20.175Z,30.58
2022-12-15T13:54:34.377Z,32.50
2022-12-15T13:57:03.927Z,28.63
2022-12-15T13:59:23.509Z,28.48
2022-12-15T14:01:33.239Z,31.73
2022-12-15T14:03:39.303Z,28.25
2022-12-15T14:05:51.262Z,34.53
2022-12-15T14:08:03.566Z,30.63
2022-12-15T14:10:28.242Z,23.05
2022-12-15T14:12:33.385Z,32.22
2022-12-15T14:14:46.081Z,33.42
2022-12-15T14:17:02.834Z,34.15
2022-12-15T14:19:16.790Z,32.10
2022-12-15T14:21:26.910Z,32.25
2022-12-15T14:23:52.503Z,31.50
2022-12-15T14:26:12.290Z,30.30
2022-12-15T14:28:30.476Z,30.15
2022-12-15T14:30:36.042Z,29.92
2022-12-15T14:32:41.296Z,34.20
2022-12-15T14:34:50.898Z,29.92
2022-12-15T14:36:58.766Z,33.00
2022-12-15T14:39:08.183Z,31.17
2022-12-15T14:41:24.877Z,33.35
2022-12-15T14:43:35.383Z,34.60
2022-12-15T14:45:40.919Z,39.33
2022-12-15T14:48:21.595Z,37.17
2022-12-15T14:50:25.300Z,40.80
2022-12-15T14:52:35.351Z,43.50
2022-12-15T14:54:53.618Z,42.00
2022-12-15T14:57:16.649Z,35.20
2022-12-15T14:59:23.079Z,35.35
2022-12-15T15:01:33.232Z,35.67
2022-12-15T15:03:09.171Z,44.10
2022-12-15T15:03:10.316Z,37.33
2022-12-15T15:03:41.356Z,37.63
2022-12-15T15:05:48.241Z,35.33
2022-12-15T15:07:59.932Z,36.25
2022-12-15T15:10:06.467Z,36.92
2022-12-15T15:12:22.406Z,39.85
2022-12-15T15:14:32.673Z,44.20
2022-12-15T15:16:38.105Z,44.90
2022-12-15T15:18:45.169Z,47.92
2022-12-15T15:20:59.603Z,49.97
2022-12-15T15:23:20.154Z,52.42
2022-12-15T15:25:36.195Z,45.70
2022-12-15T15:27:47.165Z,43.75
2022-12-15T15:29:52.253Z,43.40
2022-12-15T15:32:08.060Z,44.47
2022-12-15T15:34:13.074Z,42.13
2022-12-15T15:36:18.159Z,41.72
2022-12-15T15:38:31.055Z,41.83
2022-12-15T15:42:41.864Z,38.75
2022-12-15T15:44:49.410Z,41.53
2022-12-15T15:46:55.457Z,44.30
2022-12-15T15:49:05.113Z,34.53
2022-12-15T15:51:10.102Z,47.42
2022-12-15T15:53:21.264Z,39.72
2022-12-15T15:55:36.218Z,40.63
2022-12-15T15:57:42.942Z,39.47
2022-12-15T15:59:51.135Z,42.17
2022-12-15T16:01:59.225Z,41.65
2022-12-15T16:04:05.199Z,39.25
2022-12-15T16:06:19.977Z,47.90
2022-12-15T16:08:29.915Z,40.65
2022-12-15T16:10:35.458Z,38.33
2022-12-15T16:12:46.508Z,37.28
2022-12-15T16:14:54.344Z,41.97
2022-12-15T16:17:00.011Z,45.25
2022-12-15T16:19:05.303Z,44.72
2022-12-15T16:21:15.452Z,41.67
2022-12-15T16:23:23.667Z,44.97
2022-12-15T16:25:42.535Z,42.50
2022-12-15T16:29:59.155Z,44.08
2022-12-15T16:32:05.018Z,50.67
2022-12-15T16:34:10.035Z,44.72
2022-12-15T16:36:16.795Z,47.80
2022-12-15T16:38:27.286Z,53.67
2022-12-15T16:40:32.708Z,58.85
2022-12-15T16:42:37.780Z,66.10
2022-12-15T16:44:43.059Z,63.88
2022-12-15T16:46:50.746Z,63.05
2022-12-15T16:48:55.859Z,66.15
2022-12-15T16:51:02.920Z,70.25
2022-12-15T16:53:09.373Z,69.00
2022-12-15T16:55:25.880Z,65.18
2022-12-15T16:57:31.756Z,62.05
2022-12-15T16:59:37.150Z,68.88
2022-12-15T17:01:42.173Z,73.32
2022-12-15T17:03:49.919Z,62.90
2022-12-15T17:05:57.916Z,70.35
2022-12-15T17:08:06.922Z,63.67
2022-12-15T17:10:21.025Z,70.88
2022-12-15T17:12:26.912Z,86.53
2022-12-15T17:14:32.559Z,83.65
2022-12-15T17:16:38.166Z,86.18
2022-12-15T17:18:44.578Z,89.20
2022-12-15T17:20:52.535Z,76.75
2022-12-15T17:23:01.915Z,85.93
2022-12-15T17:25:07.947Z,77.05
2022-12-15T17:27:22.977Z,71.03
2022-12-15T17:29:28.470Z,74.15
2022-12-15T17:31:35.910Z,68.93
2022-12-15T17:33:41.165Z,58.75
2022-12-15T17:35:46.133Z,48.72
2022-12-15T17:37:53.980Z,54.22
2022-12-15T17:39:59.269Z,49.83
2022-12-15T17:42:04.765Z,60.10
2022-12-15T17:44:38.391Z,64.75
2022-12-15T17:46:44.219Z,60.65
2022-12-15T17:48:50.488Z,60.38
2022-12-15T17:50:56.770Z,58.40
2022-12-15T17:53:06.807Z,66.90
2022-12-15T17:55:35.297Z,61.45
2022-12-15T17:57:40.460Z,64.25
2022-12-15T17:59:46.110Z,70.40
2022-12-15T18:01:52.130Z,68.68
2022-12-15T18:03:57.448Z,65.85
2022-12-15T18:06:03.070Z,72.40
2022-12-15T18:08:19.676Z,64.90
2022-12-15T18:10:30.691Z,65.15
2022-12-15T18:12:36.603Z,65.03
2022-12-15T18:14:41.519Z,63.17
2022-12-15T18:16:47.332Z,65.90
2022-12-15T18:18:53.558Z,69.75
2022-12-15T18:21:05.537Z,75.05
2022-12-15T18:23:20.380Z,68.63
2022-12-15T18:25:28.792Z,69.75
2022-12-15T18:27:33.717Z,67.53
2022-12-15T18:29:39.055Z,72.13
2022-12-15T18:31:45.363Z,80.32
2022-12-15T18:33:50.475Z,80.57
2022-12-15T18:35:56.670Z,75.28
2022-12-15T18:38:01.613Z,79.18
2022-12-15T18:40:15.792Z,86.25
2022-12-15T18:42:23.767Z,103.68
2022-12-15T18:44:32.810Z,78.97
2022-12-15T18:46:37.827Z,84.25
2022-12-15T18:48:46.111Z,84.60
2022-12-15T18:50:54.244Z,78.43
2022-12-15T18:53:02.299Z,86.07
2022-12-15T18:55:21.055Z,82.55
2022-12-15T18:57:31.800Z,72.53
2022-12-15T18:59:36.714Z,75.50
2022-12-15T19:01:41.798Z,65.07
2022-12-15T19:03:47.225Z,66.13
2022-12-15T19:05:57.067Z,62.80
2022-12-15T19:08:10.668Z,56.55
2022-12-15T19:10:19.422Z,58.08
2022-12-15T19:12:24.418Z,68.82
2022-12-15T19:14:45.138Z,58.38
2022-12-15T19:17:02.533Z,61.75
2022-12-15T19:19:19.909Z,64.07
2022-12-15T19:21:39.809Z,64.72
2022-12-15T19:23:44.941Z,70.38
2022-12-15T19:25:53.981Z,59.55
2022-12-15T19:28:01.067Z,59.65
2022-12-15T19:30:17.116Z,55.22
2022-12-15T19:32:22.944Z,53.72
2022-12-15T19:34:28.405Z,65.63
2022-12-15T19:36:36.811Z,59.17
2022-12-15T19:38:42.224Z,63.33
2022-12-15T19:40:47.609Z,61.20
2022-12-15T19:42:55.795Z,66.47
2022-12-15T19:45:01.494Z,59.90
2022-12-15T19:47:14.159Z,67.72
2022-12-15T19:51:27.133Z,69.05
2022-12-15T19:53:36.160Z,71.60
2022-12-15T19:55:42.143Z,70.50
2022-12-15T19:57:47.445Z,66.68
2022-12-15T19:59:55.099Z,69.70
2022-12-15T20:02:00.428Z,66.10
2022-12-15T20:04:05.753Z,70.40
2022-12-15T20:06:17.702Z,66.03
2022-12-15T20:08:26.608Z,65.80
2022-12-15T20:10:32.728Z,68.97
2022-12-15T20:12:37.989Z,62.65
2022-12-15T20:14:42.900Z,72.20
2022-12-15T20:16:50.554Z,81.40
2022-12-15T20:18:59.104Z,69.03
2022-12-15T20:21:04.641Z,69.63
2022-12-15T20:23:18.091Z,65.15
2022-12-15T20:25:27.774Z,79.18
2022-12-15T20:27:32.850Z,75.03
2022-12-15T20:29:37.842Z,70.72
2022-12-15T20:31:42.846Z,76.05
2022-12-15T20:33:51.154Z,68.43
2022-12-15T20:35:56.322Z,72.90
2022-12-15T20:38:01.866Z,76.30
2022-12-15T20:40:17.438Z,85.57
2022-12-15T20:42:25.553Z,84.75
2022-12-15T20:44:30.666Z,90.45
2022-12-15T20:46:37.955Z,81.05
2022-12-15T20:48:43.202Z,86.35
2022-12-15T20:50:52.801Z,83.85
2022-12-15T20:52:58.511Z,84.53
2022-12-15T20:55:03.683Z,83.97
2022-12-15T20:57:08.658Z,77.93
2022-12-15T20:59:14.698Z,80.72
2022-12-15T21:01:23.702Z,78.40
2022-12-15T21:03:32.574Z,83.85
2022-12-15T21:05:37.770Z,85.18
2022-12-15T21:07:45.922Z,82.40
2022-12-15T21:09:50.884Z,70.10
2022-12-15T21:12:01.066Z,61.15
2022-12-15T21:14:18.791Z,70.70
2022-12-15T21:16:27.174Z,65.80
2022-12-15T21:21:01.268Z,58.03
2022-12-15T21:23:09.383Z,57.78
2022-12-15T21:25:24.950Z,60.47
2022-12-15T21:27:30.612Z,57.70
2022-12-15T21:29:36.754Z,56.20
2022-12-15T21:31:42.234Z,51.33
2022-12-15T21:33:47.305Z,55.58
2022-12-15T21:35:52.344Z,46.75
2022-12-15T21:37:57.383Z,49.25
2022-12-15T21:40:05.070Z,49.97
2022-12-15T21:42:15.959Z,57.78
2022-12-15T21:44:21.753Z,56.25
2022-12-15T21:46:28.669Z,58.75
2022-12-15T21:48:46.707Z,49.78
2022-12-15T21:50:52.059Z,58.78
2022-12-15T21:52:57.384Z,60.47
2022-12-15T21:55:05.584Z,58.13
2022-12-15T21:57:14.594Z,69.97
2022-12-15T21:59:23.391Z,70.15
2022-12-15T22:01:33.299Z,64.15
2022-12-15T22:03:38.385Z,59.45
2022-12-15T22:05:43.464Z,57.75
2022-12-15T22:07:48.420Z,56.38
2022-12-15T22:09:53.757Z,63.33
2022-12-15T22:12:02.058Z,54.72
2022-12-15T22:14:18.994Z,57.97
2022-12-15T22:16:24.700Z,55.97
2022-12-15T22:18:29.930Z,49.53
2022-12-15T22:20:35.054Z,53.97
2022-12-15T22:22:40.367Z,58.58
2022-12-15T22:24:45.604Z,52.72
2022-12-15T22:26:51.179Z,56.13
2022-12-15T22:29:02.736Z,50.03
2022-12-15T22:31:08.221Z,57.45
2022-12-15T22:33:21.996Z,53.15
2022-12-15T22:35:29.742Z,57.78
2022-12-15T22:37:34.728Z,60.67
2022-12-15T22:39:40.025Z,52.20
2022-12-15T22:41:48.852Z,50.05
2022-12-15T22:43:59.136Z,57.03
2022-12-15T22:46:05.151Z,53.17
2022-12-15T22:48:16.526Z,51.38
2022-12-15T22:50:24.702Z,56.15
2022-12-15T22:52:29.623Z,48.97
2022-12-15T22:54:35.380Z,53.70
2022-12-15T22:56:42.939Z,50.90
2022-12-15T22:58:50.011Z,46.20
2022-12-15T23:01:01.758Z,48.90
2022-12-15T23:03:10.428Z,52.70
2022-12-15T23:05:18.626Z,46.95
2022-12-15T23:07:24.031Z,50.90
2022-12-15T23:09:29.487Z,48.85
2022-12-15T23:11:37.964Z,49.00
2022-12-15T23:13:43.306Z,47.88
2022-12-15T23:16:00.911Z,52.75
2022-12-15T23:18:08.663Z,58.67
2022-12-15T23:20:14.678Z,54.75
2022-12-15T23:22:19.955Z,49.75
2022-12-15T23:24:25.306Z,56.25
2022-12-15T23:26:30.549Z,55.78
2022-12-15T23:28:35.661Z,59.42
2022-12-15T23:30:41.191Z,54.90
2022-12-15T23:32:46.255Z,56.55
2022-12-15T23:34:54.209Z,55.08
2022-12-15T23:36:59.919Z,63.03
2022-12-15T23:39:04.971Z,59.83
2022-12-15T23:41:10.749Z,57.33
2022-12-15T23:43:16.195Z,55.83
2022-12-15T23:45:21.899Z,56.78
2022-12-15T23:47:26.919Z,59.15
2022-12-15T23:49:32.692Z,60.38
2022-12-15T23:51:40.202Z,54.05
2022-12-15T23:53:47.439Z,52.00
2022-12-15T23:55:52.343Z,58.78
2022-12-15T23:57:58.438Z,53.97
